Eureka, Wisconsin
Current Conditions -  °F | °C
As of 7:53 PM on Sunday 25 Jan 2015 (Local Time) from KOSH Reporting Station
Broken Clouds Broken Clouds  
Wind Chill:   Ceiling: 12000
Heat Index: 16°   Visibility: 10mi
Dew Point:   Wind: 6mph
Humidity: 71%   Direction: 40°NE
Pressure: 30.05"   Gusts: NA
Location:  44°N, 88.84°W
Report Text: KOSH 260153Z 04005KT 10SM BKN120 M09/M13 A3005 RMK AO2 SLP199 T10891133
Loading
Personal Weather Stations






























Interactive Weather Map New forecast layout! Learn more

10-Day Weather Forecast

Advertisements
Track Severe Weather on mobile